createdAt,value
2023-02-14T00:03:25.482Z,7.35
2023-02-14T00:08:29.721Z,7.32
2023-02-14T00:13:32.489Z,9.18
2023-02-14T00:18:55.209Z,8.80
2023-02-14T00:23:59.267Z,8.90
2023-02-14T00:29:02.487Z,9.85
2023-02-14T00:34:05.486Z,9.10
2023-02-14T00:39:11.485Z,9.25
2023-02-14T00:44:14.874Z,8.80
2023-02-14T00:49:18.475Z,8.20
2023-02-14T00:54:22.629Z,8.60
2023-02-14T00:59:25.408Z,8.38
2023-02-14T01:04:28.196Z,9.05
2023-02-14T01:09:32.416Z,7.68
2023-02-14T01:14:38.279Z,8.40
2023-02-14T01:19:42.368Z,9.55
2023-02-14T01:24:46.527Z,8.73
2023-02-14T01:29:49.290Z,8.55
2023-02-14T01:34:52.089Z,9.20
2023-02-14T01:39:56.229Z,9.32
2023-02-14T01:45:02.696Z,9.00
2023-02-14T01:50:10.696Z,10.18
2023-02-14T01:55:17.504Z,8.85
2023-02-14T02:00:38.749Z,9.33
2023-02-14T02:05:45.392Z,9.33
2023-02-14T02:10:49.491Z,10.95
2023-02-14T02:16:04.796Z,11.82
2023-02-14T02:21:30.087Z,9.65
2023-02-14T02:27:15.298Z,9.75
2023-02-14T02:33:08.955Z,10.45
2023-02-14T02:38:25.729Z,9.35
2023-02-14T02:43:36.872Z,10.00
2023-02-14T02:48:42.348Z,10.02
2023-02-14T02:53:49.670Z,9.82
2023-02-14T02:58:56.709Z,9.95
2023-02-14T03:04:18.513Z,9.25
2023-02-14T03:09:55.140Z,9.65
2023-02-14T03:15:05.862Z,8.77
2023-02-14T03:20:15.694Z,10.82
2023-02-14T03:25:33.298Z,9.63
2023-02-14T03:30:40.348Z,9.82
2023-02-14T03:35:49.802Z,10.10
2023-02-14T03:40:58.144Z,9.40
2023-02-14T03:46:06.825Z,10.15
2023-02-14T03:51:11.921Z,9.73
2023-02-14T03:56:19.415Z,10.02
2023-02-14T04:01:24.373Z,9.40
2023-02-14T04:06:27.342Z,8.73
2023-02-14T04:11:34.984Z,8.93
2023-02-14T04:16:51.651Z,10.10
2023-02-14T04:21:54.521Z,9.07
2023-02-14T04:27:11.089Z,9.35
2023-02-14T04:32:15.683Z,10.50
2023-02-14T04:37:20.085Z,10.82
2023-02-14T04:42:24.319Z,10.43
2023-02-14T04:47:27.147Z,9.85
2023-02-14T04:52:29.892Z,10.70
2023-02-14T04:57:34.093Z,9.90
2023-02-14T05:02:36.801Z,10.45
2023-02-14T05:07:39.622Z,11.23
2023-02-14T05:12:43.828Z,10.97
2023-02-14T05:17:46.760Z,12.15
2023-02-14T05:22:49.517Z,10.38
2023-02-14T05:27:53.665Z,10.38
2023-02-14T05:32:56.408Z,9.32
2023-02-14T05:37:59.341Z,12.15
2023-02-14T05:43:03.510Z,11.60
2023-02-14T05:48:06.612Z,11.43
2023-02-14T05:53:09.344Z,11.93
2023-02-14T05:58:13.500Z,12.82
2023-02-14T06:03:16.203Z,13.00
2023-02-14T06:08:18.972Z,12.20
2023-02-14T06:13:24.785Z,11.60
2023-02-14T06:18:29.554Z,11.73
2023-02-14T06:23:32.229Z,10.95
2023-02-14T06:28:36.262Z,10.83
2023-02-14T06:33:39.039Z,10.60
2023-02-14T06:38:42.231Z,9.85
2023-02-14T06:43:48.570Z,10.68
2023-02-14T06:48:51.294Z,10.73
2023-02-14T06:53:54.169Z,10.88
2023-02-14T06:58:58.317Z,10.23
2023-02-14T07:04:01.103Z,10.32
2023-02-14T07:09:04.224Z,9.85
2023-02-14T07:14:08.294Z,9.15
2023-02-14T07:19:11.021Z,9.23
2023-02-14T07:24:13.778Z,8.45
2023-02-14T07:29:17.907Z,8.18
2023-02-14T07:34:20.664Z,7.82
2023-02-14T07:39:23.391Z,8.60
2023-02-14T07:44:28.266Z,8.48
2023-02-14T07:49:31.006Z,8.40
2023-02-14T07:54:34.119Z,7.70
2023-02-14T07:59:38.202Z,8.00
2023-02-14T08:04:40.936Z,7.40
2023-02-14T08:09:43.670Z,7.20
2023-02-14T08:14:47.905Z,6.65
2023-02-14T08:19:50.591Z,7.70
2023-02-14T08:24:53.264Z,7.30
2023-02-14T08:29:57.351Z,7.53
2023-02-14T08:35:00.065Z,7.18
2023-02-14T08:40:02.936Z,6.78
2023-02-14T08:45:08.150Z,7.43
2023-02-14T08:50:15.029Z,7.28
2023-02-14T08:55:18.196Z,7.50
2023-02-14T09:00:23.351Z,7.30
2023-02-14T09:05:26.946Z,7.23
2023-02-14T09:10:29.781Z,7.43
2023-02-14T09:15:33.904Z,7.35
2023-02-14T09:20:36.785Z,8.13
2023-02-14T09:25:39.602Z,8.27
2023-02-14T09:30:43.759Z,6.82
2023-02-14T09:36:04.111Z,7.43
2023-02-14T09:41:08.135Z,7.20
2023-02-14T09:46:15.860Z,7.68
2023-02-14T09:51:20.989Z,8.57
2023-02-14T09:56:28.462Z,8.27
2023-02-14T10:01:35.749Z,7.60
2023-02-14T10:06:47.638Z,7.45
2023-02-14T10:11:50.385Z,8.15
2023-02-14T10:16:57.609Z,8.10
2023-02-14T10:22:03.073Z,8.60
2023-02-14T10:27:12.604Z,7.60
2023-02-14T10:32:20.981Z,8.15
2023-02-14T10:37:31.684Z,7.00
2023-02-14T10:42:40.597Z,5.20
2023-02-14T10:47:51.071Z,6.75
2023-02-14T10:53:00.992Z,5.97
2023-02-14T10:58:05.539Z,6.40
2023-02-14T11:03:10.873Z,6.90
2023-02-14T11:08:22.485Z,7.22
2023-02-14T11:13:29.871Z,8.00
2023-02-14T11:18:36.041Z,7.47
2023-02-14T11:23:42.122Z,6.55
2023-02-14T11:28:51.487Z,6.28
2023-02-14T11:33:55.751Z,7.15
2023-02-14T11:39:03.587Z,7.57
2023-02-14T11:44:13.494Z,8.05
2023-02-14T11:49:28.273Z,8.25
2023-02-14T11:54:35.648Z,7.68
2023-02-14T11:59:42.173Z,7.80
2023-02-14T12:04:47.047Z,7.70
2023-02-14T12:10:06.999Z,7.25
2023-02-14T12:15:22.792Z,6.72
2023-02-14T12:20:36.684Z,6.95
2023-02-14T12:25:43.933Z,6.95
2023-02-14T12:30:46.836Z,7.43
2023-02-14T12:35:56.199Z,7.10
2023-02-14T12:41:06.663Z,7.57
2023-02-14T12:46:20.423Z,7.05
2023-02-14T12:51:28.041Z,7.55
2023-02-14T12:56:39.375Z,9.90
2023-02-14T13:02:17.782Z,7.60
2023-02-14T13:07:30.003Z,6.75
2023-02-14T13:12:37.271Z,7.22
2023-02-14T13:17:43.776Z,7.95
2023-02-14T13:22:48.400Z,7.20
2023-02-14T13:27:52.190Z,7.10
2023-02-14T13:32:57.260Z,7.30
2023-02-14T13:38:03.918Z,6.75
2023-02-14T13:43:06.993Z,7.03
2023-02-14T13:48:12.618Z,7.50
2023-02-14T13:53:30.716Z,6.93
2023-02-14T13:58:34.503Z,6.90
2023-02-14T14:03:58.433Z,7.35
2023-02-14T14:09:02.551Z,6.78
2023-02-14T14:14:26.942Z,6.82
2023-02-14T14:19:40.265Z,7.15
2023-02-14T14:24:53.435Z,7.63
2023-02-14T14:29:58.564Z,8.20
2023-02-14T14:35:03.789Z,7.45
2023-02-14T14:40:09.890Z,7.20
2023-02-14T14:45:22.442Z,6.80
2023-02-14T14:50:27.142Z,7.32
2023-02-14T14:55:32.980Z,7.25
2023-02-14T15:00:37.769Z,7.50
2023-02-14T15:05:42.614Z,7.63
2023-02-14T15:10:49.733Z,7.30
2023-02-14T15:15:52.716Z,8.43
2023-02-14T15:20:56.173Z,8.63
2023-02-14T15:26:00.851Z,7.95
2023-02-14T15:31:06.070Z,7.97
2023-02-14T15:36:12.182Z,7.80
2023-02-14T15:41:20.082Z,8.10
2023-02-14T15:46:30.925Z,8.18
2023-02-14T15:51:36.376Z,7.72
2023-02-14T15:56:44.662Z,7.65
2023-02-14T16:01:52.564Z,7.53
2023-02-14T16:07:07.939Z,8.25
2023-02-14T16:12:31.236Z,8.55
2023-02-14T16:17:34.931Z,9.30
2023-02-14T16:22:37.797Z,8.23
2023-02-14T16:27:42.164Z,9.55
2023-02-14T16:32:50.165Z,9.35
2023-02-14T16:37:53.397Z,10.07
2023-02-14T16:42:59.060Z,9.25
2023-02-14T16:48:02.213Z,8.70
2023-02-14T16:53:05.942Z,9.52
2023-02-14T16:58:10.167Z,9.15
2023-02-14T17:03:13.025Z,8.73
2023-02-14T17:08:16.489Z,8.82
2023-02-14T17:13:23.116Z,9.13
2023-02-14T17:18:26.657Z,9.02
2023-02-14T17:23:29.404Z,9.73
2023-02-14T17:28:33.522Z,9.73
2023-02-14T17:33:37.019Z,8.93
2023-02-14T17:38:40.127Z,9.93
2023-02-14T17:43:44.406Z,9.98
2023-02-14T17:48:47.965Z,10.13
2023-02-14T17:53:51.703Z,10.13
2023-02-14T17:58:56.450Z,11.52
2023-02-14T18:03:59.203Z,11.93
2023-02-14T18:09:05.971Z,10.35
2023-02-14T18:14:10.193Z,11.50
2023-02-14T18:19:16.157Z,11.30
2023-02-14T18:24:20.079Z,10.05
2023-02-14T18:29:24.535Z,10.00
2023-02-14T18:34:28.197Z,11.70
2023-02-14T18:39:32.564Z,11.27
2023-02-14T18:44:37.109Z,10.95
2023-02-14T18:49:39.924Z,13.27
2023-02-14T18:54:42.717Z,12.70
2023-02-14T18:59:46.816Z,13.15
2023-02-14T19:04:49.768Z,11.80
2023-02-14T19:09:53.731Z,11.77
2023-02-14T19:14:58.085Z,13.55
2023-02-14T19:20:00.861Z,12.73
2023-02-14T19:25:03.705Z,12.77
2023-02-14T19:30:08.948Z,12.10
2023-02-14T19:35:11.986Z,11.23
2023-02-14T19:40:15.049Z,12.52
2023-02-14T19:45:19.525Z,11.73
2023-02-14T19:50:22.590Z,11.27
2023-02-14T19:55:27.600Z,12.05
2023-02-14T20:00:32.012Z,10.52
2023-02-14T20:05:38.164Z,11.27
2023-02-14T20:10:41.597Z,10.50
2023-02-14T20:15:46.147Z,11.50
2023-02-14T20:21:04.366Z,12.15
2023-02-14T20:26:12.629Z,13.18
2023-02-14T20:31:19.499Z,10.45
2023-02-14T20:36:22.573Z,13.27
2023-02-14T20:41:26.078Z,12.88
2023-02-14T20:46:30.209Z,17.58
2023-02-14T20:51:33.291Z,11.82
2023-02-14T20:56:36.003Z,12.07
2023-02-14T21:01:40.465Z,12.23
2023-02-14T21:06:43.349Z,12.98
2023-02-14T21:11:46.277Z,18.70
2023-02-14T21:16:50.498Z,13.48
2023-02-14T21:21:53.265Z,13.32
2023-02-14T21:26:56.049Z,13.13
2023-02-14T21:32:02.581Z,11.87
2023-02-14T21:37:06.373Z,14.60
2023-02-14T21:42:11.599Z,11.93
2023-02-14T21:47:15.732Z,12.07
2023-02-14T21:52:18.460Z,11.00
2023-02-14T21:57:21.226Z,11.10
2023-02-14T22:02:25.405Z,11.90
2023-02-14T22:07:28.559Z,10.88
2023-02-14T22:12:31.392Z,10.80
2023-02-14T22:17:35.594Z,10.80
2023-02-14T22:22:38.301Z,11.57
2023-02-14T22:27:41.077Z,10.87
2023-02-14T22:32:45.171Z,11.43
2023-02-14T22:37:47.874Z,11.00
2023-02-14T22:42:50.963Z,11.00
2023-02-14T22:47:55.262Z,11.67
2023-02-14T22:52:58.669Z,10.27
2023-02-14T22:58:01.817Z,11.13
2023-02-14T23:03:06.225Z,10.80
2023-02-14T23:08:09.310Z,11.00
2023-02-14T23:13:31.073Z,12.00
2023-02-14T23:18:52.482Z,10.97
2023-02-14T23:23:55.214Z,11.77
2023-02-14T23:28:58.003Z,10.83
2023-02-14T23:34:02.108Z,11.40
2023-02-14T23:39:04.952Z,11.90
2023-02-14T23:44:08.341Z,12.37
2023-02-14T23:49:12.661Z,12.50
2023-02-14T23:54:15.677Z,12.53
2023-02-14T23:59:18.617Z,13.00
